createdAt,value
2023-04-02T00:00:14.964Z,61.98
2023-04-02T00:05:51.391Z,62.71
2023-04-02T00:10:58.531Z,62.85
2023-04-02T00:16:03.472Z,63.01
2023-04-02T00:21:18.080Z,62.57
2023-04-02T00:26:31.696Z,62.08
2023-04-02T00:31:39.231Z,62.38
2023-04-02T00:36:46.632Z,62.89
2023-04-02T00:41:58.631Z,62.13
2023-04-02T00:47:09.160Z,62.32
2023-04-02T00:52:15.751Z,61.67
2023-04-02T00:57:25.537Z,62.73
2023-04-02T01:02:33.074Z,62.46
2023-04-02T01:07:54.887Z,62.65
2023-04-02T01:13:10.452Z,62.68
2023-04-02T01:18:31.367Z,62.58
2023-04-02T01:23:45.729Z,62.54
2023-04-02T01:29:05.120Z,62.16
2023-04-02T01:34:13.094Z,62.69
2023-04-02T01:39:28.434Z,62.40
2023-04-02T01:44:38.674Z,62.49
2023-04-02T01:49:43.570Z,61.03
2023-04-02T01:54:48.600Z,62.23
2023-04-02T01:59:54.159Z,62.16
2023-04-02T02:04:57.815Z,62.37
2023-04-02T02:10:01.683Z,62.36
2023-04-02T02:15:16.636Z,61.99
2023-04-02T02:20:20.233Z,62.28
2023-04-02T02:25:27.276Z,62.50
2023-04-02T02:30:38.629Z,62.42
2023-04-02T02:35:49.555Z,62.71
2023-04-02T02:41:05.767Z,62.67
2023-04-02T02:46:15.332Z,62.56
2023-04-02T02:51:27.413Z,62.19
2023-04-02T02:56:35.030Z,62.59
2023-04-02T03:01:40.762Z,62.66
2023-04-02T03:06:45.918Z,61.81
2023-04-02T03:11:55.671Z,62.68
2023-04-02T03:17:09.976Z,62.60
2023-04-02T03:22:20.432Z,63.54
2023-04-02T03:27:27.241Z,63.28
2023-04-02T03:32:39.007Z,63.35
2023-04-02T03:37:49.359Z,63.27
2023-04-02T03:42:58.947Z,63.28
2023-04-02T03:48:11.038Z,63.28
2023-04-02T03:53:14.867Z,63.67
2023-04-02T03:58:22.859Z,63.88
2023-04-02T04:03:32.622Z,64.10
2023-04-02T04:08:42.825Z,63.97
2023-04-02T04:13:51.443Z,63.84
2023-04-02T04:19:03.365Z,63.79
2023-04-02T04:24:20.248Z,64.73
2023-04-02T04:29:38.252Z,64.68
2023-04-02T04:34:53.791Z,64.95
2023-04-02T04:40:07.736Z,62.39
2023-04-02T04:45:31.378Z,64.44
2023-04-02T04:50:43.840Z,64.70
2023-04-02T04:55:50.912Z,64.07
2023-04-02T05:01:04.103Z,63.74
2023-04-02T05:06:39.557Z,64.03
2023-04-02T05:11:47.033Z,63.01
2023-04-02T05:16:57.417Z,63.11
2023-04-02T05:22:13.487Z,62.98
2023-04-02T05:27:26.250Z,62.86
2023-04-02T05:32:34.384Z,63.02
2023-04-02T05:37:40.634Z,63.02
2023-04-02T05:42:49.449Z,63.04
2023-04-02T05:47:59.987Z,63.40
2023-04-02T05:53:34.557Z,63.16
2023-04-02T05:58:45.562Z,63.73
2023-04-02T06:04:00.887Z,63.34
2023-04-02T06:09:14.172Z,63.46
2023-04-02T06:14:18.763Z,64.34
2023-04-02T06:19:32.063Z,64.02
2023-04-02T06:24:40.812Z,63.97
2023-04-02T06:29:46.747Z,64.25
2023-04-02T06:34:54.991Z,64.23
2023-04-02T06:40:01.790Z,64.52
2023-04-02T06:45:15.348Z,64.55
2023-04-02T06:50:28.822Z,63.78
2023-04-02T06:55:42.900Z,63.70
2023-04-02T07:00:48.196Z,64.79
2023-04-02T07:11:33.594Z,63.92
2023-04-02T07:16:40.982Z,64.43
2023-04-02T07:21:44.442Z,64.18
2023-04-02T07:26:50.097Z,63.49
2023-04-02T07:31:54.002Z,62.69
2023-04-02T07:36:57.683Z,62.32
2023-04-02T07:42:03.251Z,62.08
2023-04-02T07:47:07.665Z,62.17
2023-04-02T07:52:14.201Z,62.45
2023-04-02T07:57:19.267Z,62.60
2023-04-02T08:02:23.881Z,63.43
2023-04-02T08:07:28.662Z,61.86
2023-04-02T08:12:33.683Z,62.26
2023-04-02T08:17:37.280Z,62.25
2023-04-02T08:22:40.855Z,62.42
2023-04-02T08:27:49.739Z,62.75
2023-04-02T08:32:53.306Z,63.10
2023-04-02T08:37:56.966Z,62.59
2023-04-02T08:43:24.744Z,62.53
2023-04-02T08:48:29.195Z,62.10
2023-04-02T08:53:37.260Z,61.77
2023-04-02T08:58:45.158Z,61.28
2023-04-02T09:03:51.130Z,61.75
2023-04-02T09:08:55.858Z,61.33
2023-04-02T09:14:08.142Z,61.40
2023-04-02T09:19:22.150Z,60.26
2023-04-02T09:24:25.808Z,59.72
2023-04-02T09:29:49.322Z,59.44
2023-04-02T09:35:18.513Z,59.91
2023-04-02T09:40:33.747Z,60.28
2023-04-02T09:45:39.189Z,58.51
2023-04-02T09:50:42.790Z,58.61
2023-04-02T09:55:46.802Z,60.12
2023-04-02T10:00:54.581Z,59.37
2023-04-02T10:06:10.477Z,60.24
2023-04-02T10:11:17.582Z,57.76
2023-04-02T10:16:33.024Z,56.12
2023-04-02T10:21:38.798Z,57.02
2023-04-02T10:26:54.629Z,57.88
2023-04-02T10:32:08.867Z,58.63
2023-04-02T10:37:48.906Z,58.21
2023-04-02T10:43:00.307Z,55.96
2023-04-02T10:48:13.950Z,55.31
2023-04-02T10:53:20.441Z,56.25
2023-04-02T10:58:26.414Z,56.02
2023-04-02T11:03:37.679Z,56.17
2023-04-02T11:08:44.354Z,56.66
2023-04-02T11:13:54.476Z,55.48
2023-04-02T11:19:26.783Z,57.28
2023-04-02T11:24:40.260Z,55.13
2023-04-02T11:29:46.675Z,53.86
2023-04-02T11:35:07.432Z,56.03
2023-04-02T11:40:44.707Z,55.66
2023-04-02T11:45:58.248Z,55.55
2023-04-02T11:51:16.404Z,54.98
2023-04-02T11:56:23.818Z,54.89
2023-04-02T12:01:46.081Z,56.38
2023-04-02T12:07:02.159Z,55.67
2023-04-02T12:12:19.646Z,56.25
2023-04-02T12:17:29.957Z,55.10
2023-04-02T12:22:35.510Z,55.61
2023-04-02T12:27:42.672Z,53.86
2023-04-02T12:32:46.451Z,53.92
2023-04-02T12:37:55.124Z,54.92
2023-04-02T12:42:58.621Z,55.03
2023-04-02T12:48:07.114Z,55.80
2023-04-02T12:53:21.836Z,54.79
2023-04-02T12:58:31.755Z,56.42
2023-04-02T13:03:35.487Z,56.42
2023-04-02T13:08:43.259Z,57.29
2023-04-02T13:13:48.470Z,57.82
2023-04-02T13:18:52.504Z,57.86
2023-04-02T13:23:57.748Z,57.98
2023-04-02T13:29:03.349Z,58.63
2023-04-02T13:34:07.104Z,58.92
2023-04-02T13:39:12.017Z,59.56
2023-04-02T13:44:24.392Z,60.00
2023-04-02T13:49:28.930Z,59.55
2023-04-02T13:54:40.049Z,59.97
2023-04-02T13:59:43.629Z,60.31
2023-04-02T14:04:51.672Z,61.33
2023-04-02T14:10:20.386Z,60.57
2023-04-02T14:15:39.607Z,62.05
2023-04-02T14:20:51.703Z,61.06
2023-04-02T14:26:08.319Z,60.71
2023-04-02T14:31:20.682Z,60.13
2023-04-02T14:36:32.062Z,60.34
2023-04-02T14:41:44.172Z,60.23
2023-04-02T14:46:48.110Z,60.13
2023-04-02T14:51:58.114Z,59.99
2023-04-02T14:57:07.726Z,59.33
2023-04-02T15:02:19.859Z,59.55
2023-04-02T15:07:26.861Z,59.17
2023-04-02T15:12:34.778Z,59.39
2023-04-02T15:17:38.397Z,59.91
2023-04-02T15:22:58.010Z,59.83
2023-04-02T15:28:20.862Z,60.04
2023-04-02T15:33:37.035Z,59.93
2023-04-02T15:38:45.990Z,59.70
2023-04-02T15:44:00.826Z,59.34
2023-04-02T15:49:43.541Z,59.42
2023-04-02T15:55:01.771Z,59.58
2023-04-02T16:00:22.153Z,59.28
2023-04-02T16:05:37.426Z,59.10
2023-04-02T16:10:43.337Z,59.01
2023-04-02T16:15:53.490Z,58.67
2023-04-02T16:21:26.892Z,58.41
2023-04-02T16:26:44.939Z,58.14
2023-04-02T16:31:58.923Z,58.76
2023-04-02T16:37:07.453Z,57.98
2023-04-02T16:42:27.622Z,58.63
2023-04-02T16:47:47.999Z,58.15
2023-04-02T16:52:58.096Z,58.67
2023-04-02T16:58:14.456Z,58.26
2023-04-02T17:03:40.556Z,58.23
2023-04-02T17:08:48.336Z,58.00
2023-04-02T17:13:56.617Z,57.64
2023-04-02T17:19:02.830Z,57.81
2023-04-02T17:24:21.168Z,57.53
2023-04-02T17:29:34.848Z,57.69
2023-04-02T17:34:39.751Z,57.42
2023-04-02T17:39:53.405Z,58.25
2023-04-02T17:45:12.528Z,57.89
2023-04-02T17:50:46.108Z,57.88
2023-04-02T17:56:01.780Z,57.75
2023-04-02T18:01:12.398Z,57.91
2023-04-02T18:06:22.779Z,57.26
2023-04-02T18:11:36.077Z,57.73
2023-04-02T18:16:50.354Z,56.67
2023-04-02T18:22:03.125Z,56.78
2023-04-02T18:27:18.900Z,56.81
2023-04-02T18:32:44.442Z,56.65
2023-04-02T18:38:09.353Z,56.38
2023-04-02T18:43:27.419Z,56.14
2023-04-02T18:48:41.940Z,56.32
2023-04-02T18:53:48.488Z,56.20
2023-04-02T18:58:59.163Z,56.34
2023-04-02T19:04:06.050Z,55.67
2023-04-02T19:09:17.821Z,55.46
2023-04-02T19:14:23.323Z,54.59
2023-04-02T19:19:28.479Z,54.62
2023-04-02T19:24:47.349Z,55.05
2023-04-02T19:30:04.771Z,54.52
2023-04-02T19:35:21.059Z,54.44
2023-04-02T19:40:40.729Z,54.77
2023-04-02T19:45:47.776Z,54.64
2023-04-02T19:50:51.447Z,54.46
2023-04-02T19:55:57.565Z,54.71
2023-04-02T20:01:01.806Z,54.37
2023-04-02T20:06:06.464Z,54.29
2023-04-02T20:11:11.517Z,54.49
2023-04-02T20:16:15.415Z,54.17
2023-04-02T20:21:21.308Z,54.57
2023-04-02T20:26:27.617Z,54.36
2023-04-02T20:31:31.669Z,54.14
2023-04-02T20:36:35.281Z,53.69
2023-04-02T20:41:40.102Z,53.43
2023-04-02T20:46:43.634Z,53.80
2023-04-02T20:51:48.506Z,53.45
2023-04-02T20:56:53.647Z,53.14
2023-04-02T21:01:57.305Z,53.32
2023-04-02T21:07:02.488Z,53.12
2023-04-02T21:12:07.907Z,53.45
2023-04-02T21:17:11.371Z,53.52
2023-04-02T21:22:15.026Z,53.29
2023-04-02T21:27:19.871Z,53.29
2023-04-02T21:32:23.374Z,52.93
2023-04-02T21:37:26.936Z,52.99
2023-04-02T21:42:31.907Z,52.89
2023-04-02T21:47:35.500Z,52.26
2023-04-02T21:52:38.978Z,52.95
2023-04-02T21:57:43.914Z,52.71
2023-04-02T22:02:47.714Z,52.50
2023-04-02T22:07:51.418Z,52.77
2023-04-02T22:12:56.479Z,52.51
2023-04-02T22:18:00.055Z,52.40
2023-04-02T22:23:28.150Z,53.08
2023-04-02T22:28:33.778Z,52.95
2023-04-02T22:33:37.303Z,53.23
2023-04-02T22:38:40.908Z,53.24
2023-04-02T22:43:47.284Z,53.65
2023-04-02T22:48:51.154Z,53.16
2023-04-02T22:53:55.895Z,53.05
2023-04-02T22:59:00.909Z,52.80
2023-04-02T23:04:05.340Z,52.78
2023-04-02T23:09:09.077Z,53.59
2023-04-02T23:14:13.960Z,52.91
2023-04-02T23:19:17.366Z,53.21
2023-04-02T23:24:20.895Z,53.00
2023-04-02T23:29:25.807Z,52.94
2023-04-02T23:34:29.266Z,53.07
2023-04-02T23:39:32.800Z,52.84
2023-04-02T23:44:37.814Z,52.85
2023-04-02T23:49:42.146Z,52.47
2023-04-02T23:54:45.558Z,52.87
2023-04-02T23:59:50.475Z,52.68
